Time;durP1;ratioP1;P1;durP2;ratioP2;P2;SDS_P1;SDS_P2;PMS_P1;PMS_P2;Temp;Humidity;BMP_temperature;BMP_pressure;BME280_temperature;BME280_humidity;BME280_pressure;Samples;Min_cycle;Max_cycle;Signal;HPM_P1;HPM_P2
2021/08/17 00:00:03;;;;;;;4.20;3.40;;;22.20;58.40;;;;;;4981548;28;20446;-51
2021/08/17 00:02:29;;;;;;;6.50;2.90;;;22.30;59.00;;;;;;4980007;28;20274;-51
2021/08/17 00:04:54;;;;;;;2.97;2.77;;;22.40;58.70;;;;;;4987441;28;20915;-48
2021/08/17 00:07:21;;;;;;;3.97;3.57;;;22.60;56.90;;;;;;4982208;28;20198;-46
2021/08/17 00:09:47;;;;;;;4.23;3.80;;;22.60;57.60;;;;;;4978995;28;20203;-47
2021/08/17 00:12:12;;;;;;;3.40;3.10;;;22.70;56.90;;;;;;4981951;28;21301;-46
2021/08/17 00:14:38;;;;;;;4.03;3.53;;;22.80;57.10;;;;;;4982245;28;20218;-49
2021/08/17 00:17:08;;;;;;;3.50;3.20;;;22.80;57.00;;;;;;4980637;28;20647;-47
2021/08/17 00:19:34;;;;;;;4.70;4.00;;;22.80;56.70;;;;;;4986225;28;20194;-47
2021/08/17 00:21:59;;;;;;;4.30;3.50;;;22.80;57.10;;;;;;4983759;28;20449;-46
2021/08/17 00:24:25;;;;;;;5.13;3.63;;;22.90;56.30;;;;;;4986104;28;20226;-48
2021/08/17 00:26:50;;;;;;;9.77;3.17;;;23.00;56.60;;;;;;4983675;28;20269;-47
2021/08/17 00:29:16;;;;;;;4.27;3.87;;;22.90;56.40;;;;;;4985080;28;20305;-47
2021/08/17 00:31:41;;;;;;;3.83;3.43;;;23.00;56.50;;;;;;4981493;28;20595;-46
2021/08/17 00:34:07;;;;;;;3.60;3.30;;;22.90;57.10;;;;;;4981425;28;20814;-48
2021/08/17 00:36:33;;;;;;;4.80;4.07;;;23.00;56.30;;;;;;4982795;28;20281;-48
2021/08/17 00:39:00;;;;;;;4.10;3.50;;;23.10;55.80;;;;;;4981263;28;20194;-46
2021/08/17 00:41:26;;;;;;;4.33;3.53;;;23.10;55.30;;;;;;4984510;28;20198;-49
2021/08/17 00:43:53;;;;;;;7.77;4.17;;;23.10;55.50;;;;;;4982036;28;20957;-48
2021/08/17 00:46:18;;;;;;;5.57;3.73;;;23.10;55.60;;;;;;4983218;28;20202;-48
2021/08/17 00:48:44;;;;;;;4.10;3.40;;;23.00;55.80;;;;;;4984276;28;20457;-48
2021/08/17 00:51:10;;;;;;;3.40;3.10;;;23.00;54.90;;;;;;4985784;28;20210;-49
2021/08/17 00:53:36;;;;;;;6.10;3.87;;;22.90;55.70;;;;;;4983268;28;20195;-46
2021/08/17 00:56:04;;;;;;;4.83;3.67;;;23.00;55.80;;;;;;4985108;28;20230;-47
2021/08/17 00:58:30;;;;;;;5.07;4.20;;;23.00;55.20;;;;;;4984256;28;20858;-47
2021/08/17 01:00:57;;;;;;;4.57;3.07;;;22.90;54.50;;;;;;4983627;28;20446;-47
2021/08/17 01:03:23;;;;;;;5.10;3.70;;;22.80;55.70;;;;;;4983740;28;20202;-49
2021/08/17 01:05:49;;;;;;;4.00;3.60;;;22.90;55.80;;;;;;4981796;28;20446;-46
2021/08/17 01:08:15;;;;;;;4.30;3.90;;;22.90;55.50;;;;;;4980902;28;20439;-47
2021/08/17 01:10:41;;;;;;;5.10;4.20;;;22.80;55.60;;;;;;4985426;28;20442;-47
2021/08/17 01:13:07;;;;;;;5.33;4.03;;;22.90;55.10;;;;;;4986422;28;21991;-48
2021/08/17 01:15:33;;;;;;;4.47;3.83;;;22.70;54.10;;;;;;4986883;28;20221;-47
2021/08/17 01:18:00;;;;;;;5.73;4.97;;;22.60;55.60;;;;;;4987335;28;20983;-46
2021/08/17 01:20:26;;;;;;;5.27;4.67;;;22.50;55.50;;;;;;4979889;28;20207;-47
2021/08/17 01:22:52;;;;;;;5.70;4.70;;;22.40;55.50;;;;;;4983815;28;20445;-47
2021/08/17 01:25:17;;;;;;;5.80;4.40;;;22.30;55.70;;;;;;4984068;28;20580;-48
2021/08/17 01:27:45;;;;;;;5.20;4.57;;;22.30;55.30;;;;;;4987217;28;20438;-46
2021/08/17 01:30:12;;;;;;;5.70;4.80;;;22.20;54.20;;;;;;4983413;28;21189;-46
2021/08/17 01:32:38;;;;;;;4.60;3.93;;;22.10;55.20;;;;;;4980274;28;21012;-49
2021/08/17 01:35:05;;;;;;;4.43;4.00;;;22.00;55.60;;;;;;4986167;28;20485;-47
2021/08/17 01:37:30;;;;;;;7.10;4.83;;;22.00;54.70;;;;;;4987168;28;20441;-46
2021/08/17 01:40:05;;;;;;;5.50;4.33;;;21.80;54.70;;;;;;4988869;28;20445;-46
2021/08/17 01:42:30;;;;;;;4.33;3.73;;;21.60;55.10;;;;;;4982111;28;20203;-47
2021/08/17 01:44:58;;;;;;;6.47;5.30;;;21.50;55.40;;;;;;4983251;28;20457;-47
2021/08/17 01:47:25;;;;;;;7.37;4.67;;;21.30;55.00;;;;;;4984354;28;20813;-46
2021/08/17 01:49:50;;;;;;;5.00;4.50;;;21.20;56.40;;;;;;4988530;28;20445;-50
2021/08/17 01:52:16;;;;;;;4.33;3.83;;;21.30;56.40;;;;;;4986745;28;20593;-48
2021/08/17 01:54:41;;;;;;;6.60;4.43;;;21.30;57.50;;;;;;4984644;28;20296;-46
2021/08/17 01:57:07;;;;;;;4.67;4.13;;;21.40;58.00;;;;;;4982585;28;20193;-46
2021/08/17 01:59:33;;;;;;;13.33;5.00;;;21.50;57.10;;;;;;4984262;28;20195;-47
2021/08/17 02:01:59;;;;;;;5.90;4.50;;;21.60;55.40;;;;;;4985005;28;20828;-47
2021/08/17 02:04:28;;;;;;;5.40;4.60;;;21.50;54.30;;;;;;4984838;28;20442;-47
2021/08/17 02:06:53;;;;;;;6.07;4.33;;;21.20;54.90;;;;;;4987911;28;20464;-47
2021/08/17 02:09:19;;;;;;;10.00;3.90;;;21.10;54.50;;;;;;4984184;28;20476;-45
2021/08/17 02:11:44;;;;;;;6.63;4.20;;;21.00;55.70;;;;;;4986088;28;20237;-47
2021/08/17 02:14:10;;;;;;;6.33;4.47;;;21.10;57.50;;;;;;4983256;28;20202;-46
2021/08/17 02:16:36;;;;;;;4.73;4.07;;;21.20;57.30;;;;;;4984960;28;20689;-48
2021/08/17 02:19:01;;;;;;;6.17;4.37;;;21.20;56.90;;;;;;4986373;28;20203;-49
2021/08/17 02:21:27;;;;;;;6.33;4.73;;;21.30;57.90;;;;;;4985985;28;20207;-46
2021/08/17 02:23:52;;;;;;;5.30;4.20;;;21.40;57.50;;;;;;4988474;28;20222;-50
2021/08/17 02:26:18;;;;;;;5.90;4.37;;;21.40;56.20;;;;;;4983947;28;20214;-47
2021/08/17 02:28:44;;;;;;;6.77;4.70;;;21.40;56.60;;;;;;4986050;28;20738;-48
2021/08/17 02:31:09;;;;;;;6.00;4.50;;;21.40;54.90;;;;;;4984586;28;20277;-47
2021/08/17 02:33:35;;;;;;;5.20;4.23;;;21.40;54.60;;;;;;4985558;28;20203;-49
2021/08/17 02:36:01;;;;;;;5.37;4.27;;;21.40;54.40;;;;;;4985145;28;20254;-46
2021/08/17 02:38:26;;;;;;;5.90;4.27;;;21.30;55.30;;;;;;4985633;28;20242;-50
2021/08/17 02:40:52;;;;;;;4.37;3.97;;;21.30;55.80;;;;;;4980749;28;20226;-49
2021/08/17 02:43:23;;;;;;;4.30;3.80;;;21.30;55.70;;;;;;4984607;28;20207;-47
2021/08/17 02:45:50;;;;;;;4.37;3.97;;;21.30;57.10;;;;;;4983281;28;20575;-47
2021/08/17 02:48:16;;;;;;;4.80;3.90;;;21.30;56.30;;;;;;4983012;28;20979;-47
2021/08/17 02:50:41;;;;;;;5.03;4.20;;;21.40;56.70;;;;;;4983770;28;20445;-46
2021/08/17 02:53:07;;;;;;;4.40;3.90;;;21.40;56.40;;;;;;4982236;28;20422;-47
2021/08/17 02:55:33;;;;;;;7.97;4.73;;;21.50;56.70;;;;;;4986633;28;20261;-49
2021/08/17 02:58:06;;;;;;;5.63;4.40;;;21.60;56.70;;;;;;4982691;28;20286;-51
2021/08/17 03:00:32;;;;;;;4.30;3.90;;;21.70;56.80;;;;;;4979994;28;20207;-51
2021/08/17 03:02:58;;;;;;;5.00;4.17;;;21.70;56.30;;;;;;4984767;28;20968;-46
2021/08/17 03:05:24;;;;;;;5.53;4.10;;;21.80;55.70;;;;;;4987660;28;20437;-46
2021/08/17 03:07:55;;;;;;;4.73;3.67;;;21.80;56.50;;;;;;4986422;28;20195;-46
2021/08/17 03:10:22;;;;;;;7.70;4.13;;;21.80;56.50;;;;;;4988763;28;20198;-46
2021/08/17 03:12:48;;;;;;;5.80;3.80;;;21.80;56.50;;;;;;4986670;28;20474;-47
2021/08/17 03:15:13;;;;;;;4.20;3.80;;;21.90;55.90;;;;;;4985972;28;20841;-51
2021/08/17 03:17:39;;;;;;;4.53;4.13;;;22.00;54.70;;;;;;4987617;28;20209;-47
2021/08/17 03:20:07;;;;;;;4.93;3.60;;;22.00;55.00;;;;;;4981343;28;20198;-48
2021/08/17 03:22:33;;;;;;;5.53;3.80;;;22.10;54.60;;;;;;4983658;28;20472;-47
2021/08/17 03:24:58;;;;;;;6.90;4.53;;;22.10;54.70;;;;;;4980315;28;20458;-48
2021/08/17 03:27:24;;;;;;;4.80;3.70;;;22.00;52.60;;;;;;4980039;28;20661;-47
2021/08/17 03:29:50;;;;;;;6.70;5.07;;;21.80;51.60;;;;;;4984308;28;20281;-47
2021/08/17 03:32:15;;;;;;;6.47;4.70;;;21.50;51.40;;;;;;4985326;28;20221;-49
2021/08/17 03:34:41;;;;;;;4.63;4.13;;;21.20;51.60;;;;;;4983179;28;20233;-46
2021/08/17 03:37:07;;;;;;;6.27;4.67;;;20.90;52.10;;;;;;4980150;28;20626;-47
2021/08/17 03:39:32;;;;;;;7.50;4.80;;;20.70;52.70;;;;;;4986591;28;20202;-47
2021/08/17 03:41:58;;;;;;;6.83;4.73;;;20.50;53.10;;;;;;4985659;28;20214;-50
2021/08/17 03:44:23;;;;;;;5.57;4.57;;;20.20;53.40;;;;;;4984087;28;20198;-50
2021/08/17 03:46:49;;;;;;;5.83;3.90;;;20.10;53.60;;;;;;4979688;28;20560;-47
2021/08/17 03:49:14;;;;;;;6.90;4.60;;;19.90;53.90;;;;;;4982502;28;21652;-46
2021/08/17 03:51:40;;;;;;;5.37;4.60;;;19.70;54.00;;;;;;4982713;28;21993;-47
2021/08/17 03:54:06;;;;;;;5.40;4.07;;;19.60;54.40;;;;;;4978362;28;20698;-47
2021/08/17 03:56:31;;;;;;;6.00;4.57;;;19.40;54.50;;;;;;4983647;28;20262;-49
2021/08/17 03:58:57;;;;;;;7.53;4.27;;;19.30;54.70;;;;;;4985495;28;20217;-50
2021/08/17 04:01:22;;;;;;;7.37;4.37;;;19.20;54.90;;;;;;4983741;28;20203;-46
2021/08/17 04:03:48;;;;;;;5.47;4.00;;;19.10;55.30;;;;;;4983549;28;20286;-47
2021/08/17 04:06:13;;;;;;;5.30;3.97;;;19.00;55.60;;;;;;4982129;28;20210;-47
2021/08/17 04:08:39;;;;;;;5.13;4.30;;;18.90;56.20;;;;;;4982390;28;20198;-48
2021/08/17 04:11:04;;;;;;;8.50;4.57;;;18.80;56.70;;;;;;4984846;28;20234;-48
2021/08/17 04:13:30;;;;;;;5.47;3.83;;;18.70;56.20;;;;;;4983077;28;20290;-46
2021/08/17 04:15:56;;;;;;;6.60;4.40;;;18.60;56.60;;;;;;4981772;28;20230;-48
2021/08/17 04:18:21;;;;;;;5.93;4.10;;;18.50;56.80;;;;;;4980903;28;20218;-48
2021/08/17 04:20:47;;;;;;;9.67;3.90;;;18.50;56.90;;;;;;4984772;28;20209;-47
2021/08/17 04:23:12;;;;;;;5.30;4.07;;;18.40;56.70;;;;;;4981548;28;20207;-47
2021/08/17 04:25:38;;;;;;;7.27;4.20;;;18.30;56.40;;;;;;4985354;28;20210;-47
2021/08/17 04:28:04;;;;;;;5.33;4.67;;;18.40;56.70;;;;;;4980708;28;20264;-49
2021/08/17 04:30:30;;;;;;;6.27;5.20;;;18.40;56.60;;;;;;4985550;28;20231;-48
2021/08/17 04:32:56;;;;;;;5.73;4.33;;;18.40;56.70;;;;;;4983219;28;20453;-47
2021/08/17 04:35:21;;;;;;;5.80;4.07;;;18.40;56.90;;;;;;4981015;28;20573;-46
2021/08/17 04:37:47;;;;;;;7.10;4.60;;;18.40;56.90;;;;;;4979577;28;20202;-50
2021/08/17 04:40:14;;;;;;;7.37;4.13;;;18.40;56.90;;;;;;4986453;28;20203;-46
2021/08/17 04:42:39;;;;;;;6.70;4.90;;;18.40;57.50;;;;;;4982226;28;20453;-50
2021/08/17 04:45:05;;;;;;;6.60;3.70;;;18.40;58.00;;;;;;4983264;28;20446;-49
2021/08/17 04:47:31;;;;;;;6.63;4.03;;;18.30;57.90;;;;;;4988295;28;20198;-50
2021/08/17 04:49:56;;;;;;;5.27;4.23;;;18.30;57.90;;;;;;4984193;28;21311;-46
2021/08/17 04:52:22;;;;;;;5.87;4.20;;;18.30;57.80;;;;;;4982155;28;20193;-47
2021/08/17 04:54:48;;;;;;;5.47;4.00;;;18.30;57.90;;;;;;4987329;28;20277;-50
2021/08/17 04:57:13;;;;;;;4.83;3.70;;;18.30;58.30;;;;;;4984937;28;20198;-47
2021/08/17 04:59:39;;;;;;;6.03;4.37;;;18.30;58.00;;;;;;4988339;28;20214;-49
2021/08/17 05:02:05;;;;;;;16.93;5.30;;;18.40;58.00;;;;;;4990989;28;20252;-47
2021/08/17 05:04:31;;;;;;;7.73;4.80;;;18.30;69.00;;;;;;4984210;28;20201;-50
2021/08/17 05:06:56;;;;;;;7.93;4.30;;;18.70;66.90;;;;;;4987655;28;20203;-49
2021/08/17 05:09:22;;;;;;;5.30;3.70;;;19.10;62.40;;;;;;4988414;28;20602;-51
2021/08/17 05:11:48;;;;;;;5.50;4.30;;;19.40;59.10;;;;;;4991060;28;20324;-46
2021/08/17 05:14:13;;;;;;;10.43;4.80;;;19.70;57.50;;;;;;4992437;28;21001;-51
2021/08/17 05:16:39;;;;;;;8.20;4.67;;;20.00;57.30;;;;;;4992927;28;20234;-50
2021/08/17 05:19:05;;;;;;;7.90;4.40;;;20.10;56.00;;;;;;4988893;28;21382;-47
2021/08/17 05:21:30;;;;;;;3.90;3.53;;;20.20;55.40;;;;;;4985906;28;20210;-50
2021/08/17 05:23:56;;;;;;;4.23;3.40;;;20.40;54.90;;;;;;4991004;28;20548;-49
2021/08/17 05:26:23;;;;;;;10.90;4.63;;;20.50;54.60;;;;;;4991439;28;20221;-52
2021/08/17 05:28:49;;;;;;;8.23;4.20;;;20.60;54.20;;;;;;4985724;28;20571;-47
2021/08/17 05:31:14;;;;;;;7.17;4.40;;;20.70;53.90;;;;;;4990021;28;20444;-49
2021/08/17 05:33:40;;;;;;;8.27;4.20;;;20.80;53.80;;;;;;4992605;28;20195;-51
2021/08/17 05:36:05;;;;;;;9.13;4.83;;;20.90;53.50;;;;;;4987042;28;20230;-52
2021/08/17 05:38:31;;;;;;;3.70;3.40;;;20.90;53.20;;;;;;4994277;28;20199;-47
2021/08/17 05:40:57;;;;;;;3.47;3.17;;;21.00;53.30;;;;;;4981018;28;20199;-47
2021/08/17 05:43:23;;;;;;;5.20;3.90;;;21.10;53.30;;;;;;4987378;28;20202;-48
2021/08/17 05:45:48;;;;;;;4.73;3.80;;;21.20;53.20;;;;;;4992447;28;20194;-51
2021/08/17 05:48:14;;;;;;;7.17;4.33;;;21.20;53.20;;;;;;4986215;28;20194;-50
2021/08/17 05:50:39;;;;;;;6.60;3.63;;;21.20;52.90;;;;;;4989183;28;20604;-51
2021/08/17 05:53:05;;;;;;;5.60;3.70;;;21.20;52.70;;;;;;4991999;28;20190;-47
2021/08/17 05:55:31;;;;;;;5.63;3.80;;;21.20;52.70;;;;;;4983406;28;20231;-49
2021/08/17 05:57:59;;;;;;;6.60;4.03;;;21.30;52.50;;;;;;4985066;28;20199;-52
2021/08/17 06:00:26;;;;;;;5.00;3.97;;;21.30;51.60;;;;;;4985992;28;20426;-52
2021/08/17 06:02:51;;;;;;;4.83;4.03;;;21.40;51.90;;;;;;4992159;28;20803;-51
2021/08/17 06:05:17;;;;;;;7.57;4.47;;;21.50;51.80;;;;;;4991692;28;20442;-47
2021/08/17 06:07:50;;;;;;;4.60;3.53;;;21.50;51.60;;;;;;4993874;28;20199;-51
2021/08/17 06:10:17;;;;;;;8.90;4.37;;;21.60;51.60;;;;;;4990601;28;20296;-47
2021/08/17 06:12:43;;;;;;;4.57;3.60;;;21.60;50.60;;;;;;4989860;28;20484;-51
2021/08/17 06:15:10;;;;;;;8.43;3.93;;;21.50;50.60;;;;;;4989208;28;20598;-49
2021/08/17 06:17:36;;;;;;;4.07;3.67;;;21.30;51.60;;;;;;4989249;28;20440;-52
2021/08/17 06:20:06;;;;;;;5.93;4.20;;;21.00;51.00;;;;;;4991594;28;20434;-52
2021/08/17 06:22:32;;;;;;;6.63;4.50;;;20.90;50.80;;;;;;4992017;28;20194;-49
2021/08/17 06:24:58;;;;;;;7.43;4.90;;;20.90;51.10;;;;;;4993209;28;20525;-50
2021/08/17 06:27:24;;;;;;;5.00;3.90;;;20.70;51.80;;;;;;4992204;28;20195;-51
2021/08/17 06:29:50;;;;;;;6.30;4.30;;;20.60;52.00;;;;;;4985329;28;20446;-51
2021/08/17 06:32:16;;;;;;;6.67;4.57;;;20.40;52.60;;;;;;4988216;28;20273;-51
2021/08/17 06:34:42;;;;;;;4.90;4.20;;;20.40;52.60;;;;;;4988525;28;20938;-51
2021/08/17 06:37:07;;;;;;;6.33;4.60;;;20.50;53.00;;;;;;4974436;28;20202;-51
2021/08/17 06:39:33;;;;;;;7.97;4.63;;;20.30;52.40;;;;;;4974888;28;20281;-50
2021/08/17 06:41:58;;;;;;;7.10;4.80;;;20.40;52.90;;;;;;4974273;28;20202;-48
2021/08/17 06:44:24;;;;;;;7.70;5.13;;;20.20;52.00;;;;;;4974438;28;20199;-51
2021/08/17 06:46:49;;;;;;;6.27;4.30;;;20.30;52.30;;;;;;4974449;28;20202;-51
2021/08/17 06:49:15;;;;;;;6.67;4.37;;;20.30;53.00;;;;;;4974783;28;20202;-50
2021/08/17 06:51:40;;;;;;;6.83;4.40;;;20.30;52.20;;;;;;4984772;28;20702;-50
2021/08/17 06:54:06;;;;;;;6.17;4.57;;;20.30;52.40;;;;;;4974903;28;20662;-51
2021/08/17 06:56:32;;;;;;;5.63;4.40;;;20.30;52.60;;;;;;4973958;28;20218;-51
2021/08/17 06:58:58;;;;;;;6.53;4.70;;;20.20;52.40;;;;;;4974312;28;20254;-50
2021/08/17 07:01:24;;;;;;;5.43;3.47;;;20.30;52.50;;;;;;4974031;28;20206;-50
2021/08/17 07:03:49;;;;;;;6.47;4.40;;;20.40;52.60;;;;;;4974316;28;20427;-51
2021/08/17 07:06:15;;;;;;;5.07;4.37;;;20.50;52.20;;;;;;4974401;28;20195;-51
2021/08/17 07:08:40;;;;;;;6.10;4.60;;;20.50;51.60;;;;;;4973930;28;20203;-51
2021/08/17 07:11:06;;;;;;;5.07;3.70;;;20.50;51.30;;;;;;4973959;28;20227;-46
2021/08/17 07:13:32;;;;;;;6.40;5.03;;;20.60;51.40;;;;;;4980214;28;20221;-46
2021/08/17 07:16:01;;;;;;;7.67;5.07;;;20.50;51.20;;;;;;4993697;28;20489;-46
2021/08/17 07:18:26;;;;;;;7.93;5.23;;;20.40;52.00;;;;;;4992069;28;20612;-49
2021/08/17 07:20:52;;;;;;;5.37;4.43;;;20.60;51.60;;;;;;4987056;28;20461;-46
2021/08/17 07:23:18;;;;;;;6.13;4.53;;;20.50;50.90;;;;;;4992981;28;20290;-46
2021/08/17 07:25:43;;;;;;;6.90;5.20;;;20.70;51.90;;;;;;4993099;28;20194;-47
2021/08/17 07:28:12;;;;;;;7.83;5.03;;;20.70;50.80;;;;;;4993002;28;20194;-47
2021/08/17 07:30:39;;;;;;;7.00;4.43;;;20.50;50.50;;;;;;4993455;28;20655;-46
2021/08/17 07:33:05;;;;;;;7.00;4.13;;;20.40;50.40;;;;;;4992560;28;20426;-46
2021/08/17 07:35:30;;;;;;;5.87;5.07;;;20.30;51.10;;;;;;4992944;28;20547;-45
2021/08/17 07:37:56;;;;;;;6.87;4.67;;;20.20;50.90;;;;;;4992903;28;20197;-46
2021/08/17 07:40:22;;;;;;;8.00;5.20;;;20.20;51.20;;;;;;4993303;28;20277;-48
2021/08/17 07:42:48;;;;;;;6.40;4.43;;;20.40;51.10;;;;;;4992987;28;20345;-46
2021/08/17 07:45:15;;;;;;;6.43;4.60;;;20.30;51.20;;;;;;4978264;28;20877;-46
2021/08/17 07:47:41;;;;;;;7.50;4.83;;;20.30;51.10;;;;;;4973315;28;20902;-48
2021/08/17 07:50:08;;;;;;;6.73;4.70;;;20.50;51.80;;;;;;4973855;28;20566;-46
2021/08/17 07:52:35;;;;;;;8.83;5.30;;;20.80;51.20;;;;;;4984552;28;20450;-47
2021/08/17 07:55:06;;;;;;;5.90;4.50;;;21.00;51.00;;;;;;4972783;28;21019;-47
2021/08/17 07:57:32;;;;;;;7.00;4.77;;;21.00;50.40;;;;;;4973159;28;20439;-46
2021/08/17 07:59:58;;;;;;;6.90;4.70;;;20.80;50.20;;;;;;4973444;28;20446;-47
2021/08/17 08:02:23;;;;;;;6.73;4.50;;;20.90;50.80;;;;;;4972958;28;20262;-46
2021/08/17 08:04:49;;;;;;;6.17;5.07;;;21.00;50.50;;;;;;4973115;28;20184;-47
2021/08/17 08:07:15;;;;;;;10.03;5.47;;;21.20;50.40;;;;;;4972886;28;20592;-48
2021/08/17 08:09:40;;;;;;;8.73;5.00;;;21.10;49.40;;;;;;4973256;28;20226;-47
2021/08/17 08:12:07;;;;;;;8.83;5.27;;;21.10;49.20;;;;;;4971247;28;20567;-47
2021/08/17 08:14:33;;;;;;;6.00;5.20;;;21.00;49.80;;;;;;4987555;28;20278;-48
2021/08/17 08:17:01;;;;;;;8.07;5.13;;;21.00;49.10;;;;;;4992160;28;20512;-52
2021/08/17 08:19:26;;;;;;;6.67;5.37;;;21.00;49.20;;;;;;4986783;28;20246;-46
2021/08/17 08:21:52;;;;;;;5.93;5.37;;;21.20;48.80;;;;;;4991997;28;20845;-47
2021/08/17 08:24:18;;;;;;;7.03;5.47;;;21.40;49.10;;;;;;4992193;28;20552;-50
2021/08/17 08:26:43;;;;;;;5.10;4.27;;;21.60;48.90;;;;;;4992032;28;20675;-46
2021/08/17 08:29:09;;;;;;;6.50;4.13;;;21.70;47.90;;;;;;4992439;28;20202;-46
2021/08/17 08:31:35;;;;;;;7.07;4.77;;;21.90;47.50;;;;;;4991203;28;20194;-51
2021/08/17 08:34:00;;;;;;;6.43;5.10;;;21.80;48.90;;;;;;4991818;28;20599;-47
2021/08/17 08:36:26;;;;;;;5.73;5.13;;;21.60;48.10;;;;;;4991740;28;20313;-50
2021/08/17 08:38:51;;;;;;;6.47;5.03;;;21.40;48.50;;;;;;4990855;28;20245;-51
2021/08/17 08:41:20;;;;;;;9.70;5.50;;;21.60;49.00;;;;;;4992367;28;20576;-48
2021/08/17 08:43:47;;;;;;;6.40;5.80;;;21.60;49.40;;;;;;4991716;28;20202;-49
2021/08/17 08:46:18;;;;;;;5.80;4.97;;;21.50;50.10;;;;;;4992173;28;20422;-46
2021/08/17 08:48:49;;;;;;;7.70;4.93;;;21.60;47.60;;;;;;4991714;28;20520;-49
2021/08/17 08:51:17;;;;;;;6.93;5.60;;;21.30;46.40;;;;;;4990781;28;20496;-48
2021/08/17 08:53:43;;;;;;;6.00;4.80;;;21.40;47.40;;;;;;4976897;28;20459;-47
2021/08/17 08:56:09;;;;;;;8.37;5.13;;;21.70;46.90;;;;;;4972627;28;20509;-50
2021/08/17 08:58:35;;;;;;;9.50;5.50;;;22.00;47.20;;;;;;4972396;28;20202;-46
2021/08/17 09:01:01;;;;;;;5.80;4.33;;;22.30;46.80;;;;;;4972927;28;20945;-46
2021/08/17 09:03:47;;;;;;;4.97;4.47;;;22.40;46.50;;;;;;4971754;28;20505;-47
2021/08/17 09:06:30;;;;;;;5.30;4.40;;;22.50;45.30;;;;;;4971044;28;20251;-49
2021/08/17 09:09:11;;;;;;;6.50;5.70;;;22.40;46.00;;;;;;4972640;28;20804;-47
2021/08/17 09:11:40;;;;;;;7.37;5.73;;;22.60;45.80;;;;;;4970598;28;20482;-47
2021/08/17 09:14:24;;;;;;;7.93;5.53;;;22.60;44.30;;;;;;4983481;28;20429;-50
2021/08/17 09:16:56;;;;;;;5.83;4.30;;;22.70;44.20;;;;;;4991748;28;20986;-48
2021/08/17 09:19:43;;;;;;;6.13;4.67;;;23.00;44.30;;;;;;4985697;28;20510;-48
2021/08/17 09:22:21;;;;;;;5.97;4.40;;;23.20;44.30;;;;;;4980783;28;20856;-51
2021/08/17 09:24:51;;;;;;;6.97;5.70;;;23.30;42.50;;;;;;4991627;28;20963;-46
2021/08/17 09:27:22;;;;;;;5.17;4.50;;;23.50;41.90;;;;;;4991461;28;20921;-46
2021/08/17 09:29:52;;;;;;;5.37;4.60;;;23.60;42.10;;;;;;4991925;28;20433;-47
2021/08/17 09:32:27;;;;;;;5.10;4.53;;;23.50;41.70;;;;;;4989736;28;20969;-48
2021/08/17 09:34:55;;;;;;;5.20;4.37;;;23.50;42.40;;;;;;4991420;28;20434;-47
2021/08/17 09:37:24;;;;;;;8.07;5.07;;;23.40;41.90;;;;;;4991523;28;20430;-47
2021/08/17 09:39:54;;;;;;;6.27;4.77;;;23.60;42.70;;;;;;4991810;28;20425;-46
2021/08/17 09:42:26;;;;;;;5.20;4.70;;;23.70;41.60;;;;;;4991430;28;20440;-46
2021/08/17 09:45:12;;;;;;;7.53;4.87;;;23.50;41.20;;;;;;4993997;28;21041;-48
2021/08/17 09:47:41;;;;;;;6.60;4.60;;;23.40;40.60;;;;;;4994773;28;20441;-47
2021/08/17 09:50:27;;;;;;;5.93;4.67;;;23.30;41.50;;;;;;4995304;28;20484;-46
2021/08/17 09:53:06;;;;;;;6.20;5.60;;;23.40;40.80;;;;;;4975094;28;20453;-46
2021/08/17 09:55:48;;;;;;;7.80;4.70;;;23.40;40.50;;;;;;4975172;28;20490;-47
2021/08/17 09:58:27;;;;;;;6.17;5.00;;;23.40;39.00;;;;;;4972484;28;20430;-47
2021/08/17 10:01:00;;;;;;;6.77;4.77;;;23.30;39.30;;;;;;4975761;28;20500;-50
2021/08/17 10:03:27;;;;;;;6.30;4.70;;;22.80;39.90;;;;;;4974860;28;20418;-49
2021/08/17 10:05:53;;;;;;;6.00;4.10;;;22.60;40.80;;;;;;4975419;28;20431;-46
2021/08/17 10:08:21;;;;;;;7.23;5.23;;;22.10;40.60;;;;;;4974552;28;20453;-47
2021/08/17 10:10:49;;;;;;;10.27;4.83;;;22.20;40.90;;;;;;4975556;28;20911;-48
2021/08/17 10:13:19;;;;;;;7.07;4.80;;;22.30;40.50;;;;;;4978521;28;20476;-47
2021/08/17 10:15:47;;;;;;;6.30;4.50;;;22.30;41.30;;;;;;4994657;28;20497;-46
2021/08/17 10:18:45;;;;;;;5.63;4.73;;;22.30;40.50;;;;;;4994249;28;20897;-46
2021/08/17 10:21:15;;;;;;;4.80;3.70;;;22.60;39.80;;;;;;4963436;28;20897;-49
2021/08/17 10:23:44;;;;;;;4.97;4.47;;;22.80;39.30;;;;;;4973361;28;20896;-46
2021/08/17 10:26:29;;;;;;;4.60;3.90;;;23.00;38.90;;;;;;4974718;28;20513;-50
2021/08/17 10:28:54;;;;;;;6.90;4.60;;;23.20;39.10;;;;;;4975060;28;20484;-50
2021/08/17 10:31:22;;;;;;;5.00;4.47;;;23.30;39.30;;;;;;4974945;28;20461;-51
2021/08/17 10:33:51;;;;;;;8.40;4.70;;;23.30;40.40;;;;;;4974962;28;20211;-51
2021/08/17 10:36:44;;;;;;;5.40;4.80;;;23.50;39.50;;;;;;4974846;28;20607;-47
2021/08/17 10:39:18;;;;;;;6.10;4.50;;;23.70;40.00;;;;;;4975163;28;20488;-47
2021/08/17 10:41:49;;;;;;;5.57;4.90;;;23.60;39.80;;;;;;4974471;28;20435;-48
2021/08/17 10:44:35;;;;;;;6.70;6.00;;;23.90;40.50;;;;;;4974352;28;20425;-47
2021/08/17 10:47:11;;;;;;;9.37;7.27;;;24.10;39.80;;;;;;4974138;28;20956;-47
2021/08/17 10:49:47;;;;;;;11.37;7.80;;;24.40;39.60;;;;;;4975050;28;20438;-48
2021/08/17 10:52:31;;;;;;;6.60;4.97;;;24.50;38.70;;;;;;4983863;28;20435;-46
2021/08/17 10:55:34;;;;;;;4.87;4.37;;;24.50;39.00;;;;;;4972197;28;20439;-48
2021/08/17 10:58:05;;;;;;;4.40;4.00;;;24.30;38.50;;;;;;4972632;28;20541;-47
2021/08/17 11:00:47;;;;;;;5.23;3.53;;;24.40;36.30;;;;;;4974654;28;20836;-46
2021/08/17 11:03:13;;;;;;;6.80;4.10;;;24.70;38.20;;;;;;4973598;28;20435;-46
2021/08/17 11:05:53;;;;;;;5.87;5.27;;;24.90;38.70;;;;;;4974657;28;20487;-48
2021/08/17 11:08:30;;;;;;;4.23;3.80;;;25.10;37.30;;;;;;4972522;28;20438;-47
2021/08/17 11:11:00;;;;;;;7.13;4.30;;;25.30;36.50;;;;;;4974389;28;20477;-46
2021/08/17 11:13:26;;;;;;;4.53;3.13;;;25.20;36.00;;;;;;4979034;28;20430;-48
2021/08/17 11:16:08;;;;;;;3.90;3.50;;;25.00;34.40;;;;;;4992490;28;20953;-50
2021/08/17 11:18:49;;;;;;;4.57;4.07;;;25.00;34.80;;;;;;4991865;28;20446;-49
2021/08/17 11:21:29;;;;;;;5.03;3.60;;;25.10;35.50;;;;;;4974149;28;20433;-47
2021/08/17 11:24:13;;;;;;;5.70;3.77;;;25.10;34.90;;;;;;4974008;28;20429;-50
2021/08/17 11:26:40;;;;;;;4.97;3.60;;;25.10;35.10;;;;;;4973472;28;20442;-47
2021/08/17 11:29:06;;;;;;;3.90;3.23;;;25.20;34.50;;;;;;4973995;28;20427;-50
2021/08/17 11:31:42;;;;;;;4.10;3.70;;;25.40;34.50;;;;;;4973371;28;20493;-47
2021/08/17 11:34:14;;;;;;;6.70;4.00;;;25.30;35.60;;;;;;4973765;28;20209;-51
2021/08/17 11:36:40;;;;;;;5.23;3.60;;;25.20;34.30;;;;;;4973187;28;20491;-48
2021/08/17 11:39:22;;;;;;;4.47;4.07;;;25.30;34.90;;;;;;4973970;28;20433;-51
2021/08/17 11:41:49;;;;;;;3.87;3.57;;;25.50;35.80;;;;;;4973424;28;20210;-49
2021/08/17 11:44:16;;;;;;;4.93;4.10;;;25.60;36.70;;;;;;4971811;28;20434;-47
2021/08/17 11:46:41;;;;;;;5.43;4.50;;;25.90;35.40;;;;;;4973083;28;20423;-50
2021/08/17 11:49:27;;;;;;;6.10;5.27;;;26.10;36.00;;;;;;4973790;28;20445;-49
2021/08/17 11:52:01;;;;;;;4.00;3.60;;;26.20;35.70;;;;;;4985316;28;20663;-51
2021/08/17 11:54:27;;;;;;;3.60;3.30;;;26.40;34.90;;;;;;4973701;28;20457;-47
2021/08/17 11:56:57;;;;;;;4.47;3.90;;;26.50;33.60;;;;;;4972711;28;20986;-47
2021/08/17 11:59:24;;;;;;;4.83;3.90;;;26.70;34.70;;;;;;4973674;28;20199;-51
2021/08/17 12:01:57;;;;;;;4.23;3.53;;;27.00;35.10;;;;;;4973062;28;20429;-48
2021/08/17 12:04:23;;;;;;;3.97;3.57;;;27.30;34.00;;;;;;4973201;28;20521;-50
2021/08/17 12:07:16;;;;;;;3.53;3.17;;;27.20;33.50;;;;;;4972637;28;20478;-46
2021/08/17 12:09:44;;;;;;;8.20;3.63;;;27.00;33.10;;;;;;4972083;28;20202;-51
2021/08/17 12:12:12;;;;;;;3.47;3.17;;;26.90;33.20;;;;;;4972414;28;20486;-51
2021/08/17 12:14:38;;;;;;;3.70;3.40;;;26.90;33.10;;;;;;4988416;28;20522;-47
2021/08/17 12:17:05;;;;;;;3.73;3.40;;;27.00;32.90;;;;;;4992164;28;21100;-51
2021/08/17 12:19:33;;;;;;;4.57;3.80;;;27.20;34.40;;;;;;4991270;28;20183;-46
2021/08/17 12:21:59;;;;;;;5.67;3.40;;;27.20;33.10;;;;;;4991993;28;20456;-52
2021/08/17 12:24:31;;;;;;;4.37;3.80;;;27.30;32.90;;;;;;4992077;28;20461;-47
2021/08/17 12:27:02;;;;;;;3.67;3.37;;;27.40;31.60;;;;;;4991706;28;20942;-49
2021/08/17 12:29:39;;;;;;;4.93;3.13;;;27.30;31.90;;;;;;4992582;28;20434;-47
2021/08/17 12:32:20;;;;;;;4.20;3.50;;;27.50;32.00;;;;;;4992160;28;20824;-48
2021/08/17 12:34:49;;;;;;;4.20;3.73;;;27.60;32.20;;;;;;4991934;28;20449;-48
2021/08/17 12:37:37;;;;;;;3.30;3.00;;;27.80;32.60;;;;;;4990288;28;20438;-49
2021/08/17 12:40:07;;;;;;;3.40;3.10;;;28.00;31.10;;;;;;4992314;28;20441;-49
2021/08/17 12:42:41;;;;;;;3.17;2.73;;;28.10;30.30;;;;;;4992103;28;20977;-51
2021/08/17 12:45:14;;;;;;;4.33;3.13;;;28.10;31.00;;;;;;4991919;28;20886;-50
2021/08/17 12:47:54;;;;;;;3.80;2.77;;;28.30;31.70;;;;;;4991737;28;20473;-48
2021/08/17 12:50:20;;;;;;;5.50;3.97;;;28.20;28.50;;;;;;4992361;28;20512;-51